Nearby METARS Reports

 

LFML - Marseille/Marign, France
Distance from station: O 47km
Mise à jour: 16/10/2018 21:30
partiellement nuageux
partiellement nuageux
 Wind from calm
Vent: calme
Température: 18°C
Point de rosée: 16°C
Humidité: 88%
Baromètre: 1018 hPa
Clouds: partiellement nuageux
Visibility: 9 km
2018/10/16 19:30 LFML 161930Z AUTO 00000KT 9000 NSC 18/16 Q1018 NOSIG
LFMC - Le Luc/Le Cannet, France
Distance from station: ESE 48km
Mise à jour: 16/10/2018 21:30
pluie légère, nuageux
pluie légère, nuageux
 Wind from varies
Vent: varies 2 km/h
Température: 17°C
Point de rosée: 15°C
Humidité: 88%
Baromètre: 1018 hPa
Résumé: pluie légère
Clouds: nuageux
Visibility: 6 km
Cloud details: peu nuageux 975 m
nuageux 1402 m
nuageux 1646 m
2018/10/16 19:30 LFMC 161930Z AUTO VRB01KT 6000 -RA FEW032 BKN046 BKN054 17/15 Q1018
LFTH - Hyeres/Le Palyve, France
Distance from station: SSE 53km
Mise à jour: 16/10/2018 21:30
couvert
couvert
 Wind from NNE
Vent: NNE 9 km/h
Température: 18°C
Point de rosée: 15°C
Humidité: 83%
Baromètre: 1018 hPa
Clouds: couvert
Visibility: 10 km
Cloud details: partiellement nuageux 945 m
couvert 1128 m
2018/10/16 19:30 LFTH 161930Z AUTO 02005KT 9999 SCT031 OVC037 18/15 Q1018 NOSIG